sensor_id;sensor_type;location;lat;lon;timestamp;temperature;humidity
14144;DHT22;7152;48.348;10.980;2022-11-02T00:00:28;9.10;99.90
14144;DHT22;7152;48.348;10.980;2022-11-02T00:02:54;9.10;99.90
14144;DHT22;7152;48.348;10.980;2022-11-02T00:05:20;9.00;99.90
14144;DHT22;7152;48.348;10.980;2022-11-02T00:07:50;9.00;99.90
14144;DHT22;7152;48.348;10.980;2022-11-02T00:10:16;9.10;99.90
14144;DHT22;7152;48.348;10.980;2022-11-02T00:12:42;9.10;99.90
14144;DHT22;7152;48.348;10.980;2022-11-02T00:15:08;9.10;99.90
14144;DHT22;7152;48.348;10.980;2022-11-02T00:17:34;9.10;99.90
14144;DHT22;7152;48.348;10.980;2022-11-02T00:20:02;9.00;99.90
14144;DHT22;7152;48.348;10.980;2022-11-02T00:22:28;9.00;99.90
14144;DHT22;7152;48.348;10.980;2022-11-02T00:24:54;9.00;99.90
14144;DHT22;7152;48.348;10.980;2022-11-02T00:27:22;9.00;99.90
14144;DHT22;7152;48.348;10.980;2022-11-02T00:29:48;9.00;99.90
14144;DHT22;7152;48.348;10.980;2022-11-02T00:32:13;9.00;99.90
14144;DHT22;7152;48.348;10.980;2022-11-02T00:34:39;9.00;99.90
14144;DHT22;7152;48.348;10.980;2022-11-02T00:37:05;9.00;99.90
14144;DHT22;7152;48.348;10.980;2022-11-02T00:39:30;8.90;99.90
14144;DHT22;7152;48.348;10.980;2022-11-02T00:41:56;8.90;99.90
14144;DHT22;7152;48.348;10.980;2022-11-02T00:44:21;8.90;99.90
14144;DHT22;7152;48.348;10.980;2022-11-02T00:46:47;8.90;99.90
14144;DHT22;7152;48.348;10.980;2022-11-02T00:49:13;8.90;99.90
14144;DHT22;7152;48.348;10.980;2022-11-02T00:51:38;8.90;99.90
14144;DHT22;7152;48.348;10.980;2022-11-02T00:54:04;8.90;99.90
14144;DHT22;7152;48.348;10.980;2022-11-02T00:56:29;8.90;99.90
14144;DHT22;7152;48.348;10.980;2022-11-02T00:58:55;8.80;99.90
14144;DHT22;7152;48.348;10.980;2022-11-02T01:01:22;8.80;99.90
14144;DHT22;7152;48.348;10.980;2022-11-02T01:03:47;8.80;99.90
14144;DHT22;7152;48.348;10.980;2022-11-02T01:06:14;8.80;99.90
14144;DHT22;7152;48.348;10.980;2022-11-02T01:08:40;8.80;99.90
14144;DHT22;7152;48.348;10.980;2022-11-02T01:11:14;8.80;99.90
14144;DHT22;7152;48.348;10.980;2022-11-02T01:13:40;8.70;99.90
14144;DHT22;7152;48.348;10.980;2022-11-02T01:16:07;8.70;99.90
14144;DHT22;7152;48.348;10.980;2022-11-02T01:18:33;8.70;99.90
14144;DHT22;7152;48.348;10.980;2022-11-02T01:20:58;8.60;99.90
14144;DHT22;7152;48.348;10.980;2022-11-02T01:23:24;8.60;99.90
14144;DHT22;7152;48.348;10.980;2022-11-02T01:25:50;8.60;99.90
14144;DHT22;7152;48.348;10.980;2022-11-02T01:28:16;8.60;99.90
14144;DHT22;7152;48.348;10.980;2022-11-02T01:30:42;8.60;99.90
14144;DHT22;7152;48.348;10.980;2022-11-02T01:33:07;8.70;99.90
14144;DHT22;7152;48.348;10.980;2022-11-02T01:35:35;8.70;99.90
14144;DHT22;7152;48.348;10.980;2022-11-02T01:38:01;8.80;99.90
14144;DHT22;7152;48.348;10.980;2022-11-02T01:40:27;8.80;99.90
14144;DHT22;7152;48.348;10.980;2022-11-02T01:42:58;8.80;99.90
14144;DHT22;7152;48.348;10.980;2022-11-02T01:45:24;8.90;99.90
14144;DHT22;7152;48.348;10.980;2022-11-02T01:47:50;8.90;99.90
14144;DHT22;7152;48.348;10.980;2022-11-02T01:50:22;8.80;99.90
14144;DHT22;7152;48.348;10.980;2022-11-02T01:52:48;8.80;99.90
14144;DHT22;7152;48.348;10.980;2022-11-02T01:55:20;8.80;99.90
14144;DHT22;7152;48.348;10.980;2022-11-02T01:57:54;8.70;99.90
14144;DHT22;7152;48.348;10.980;2022-11-02T02:00:22;8.70;99.90
14144;DHT22;7152;48.348;10.980;2022-11-02T02:02:54;8.70;99.90
14144;DHT22;7152;48.348;10.980;2022-11-02T02:05:22;8.70;99.90
14144;DHT22;7152;48.348;10.980;2022-11-02T02:07:49;8.80;99.90
14144;DHT22;7152;48.348;10.980;2022-11-02T02:10:16;8.70;99.90
14144;DHT22;7152;48.348;10.980;2022-11-02T02:12:42;8.80;99.90
14144;DHT22;7152;48.348;10.980;2022-11-02T02:15:09;8.80;99.90
14144;DHT22;7152;48.348;10.980;2022-11-02T02:18:00;8.90;99.90
14144;DHT22;7152;48.348;10.980;2022-11-02T02:29:09;9.20;99.90
14144;DHT22;7152;48.348;10.980;2022-11-02T02:37:21;9.40;99.90
14144;DHT22;7152;48.348;10.980;2022-11-02T02:39:59;9.40;99.90
14144;DHT22;7152;48.348;10.980;2022-11-02T02:42:33;9.40;99.90
14144;DHT22;7152;48.348;10.980;2022-11-02T02:45:15;9.30;99.90
14144;DHT22;7152;48.348;10.980;2022-11-02T02:47:49;9.30;99.90
14144;DHT22;7152;48.348;10.980;2022-11-02T02:50:26;9.20;99.90
14144;DHT22;7152;48.348;10.980;2022-11-02T02:52:54;9.20;99.90
14144;DHT22;7152;48.348;10.980;2022-11-02T02:55:29;9.20;99.90
14144;DHT22;7152;48.348;10.980;2022-11-02T02:57:56;9.10;99.90
14144;DHT22;7152;48.348;10.980;2022-11-02T03:00:24;9.10;99.90
14144;DHT22;7152;48.348;10.980;2022-11-02T03:02:50;9.10;99.90
14144;DHT22;7152;48.348;10.980;2022-11-02T03:05:29;9.00;99.90
14144;DHT22;7152;48.348;10.980;2022-11-02T03:07:58;9.00;99.90
14144;DHT22;7152;48.348;10.980;2022-11-02T03:10:44;8.90;99.90
14144;DHT22;7152;48.348;10.980;2022-11-02T03:15:55;8.80;99.90
14144;DHT22;7152;48.348;10.980;2022-11-02T03:21:41;8.80;99.90
14144;DHT22;7152;48.348;10.980;2022-11-02T03:24:14;8.80;99.90
14144;DHT22;7152;48.348;10.980;2022-11-02T03:29:32;8.80;99.90
14144;DHT22;7152;48.348;10.980;2022-11-02T03:34:40;8.70;99.90
14144;DHT22;7152;48.348;10.980;2022-11-02T03:39:52;8.50;99.90
14144;DHT22;7152;48.348;10.980;2022-11-02T03:42:26;8.50;99.90
14144;DHT22;7152;48.348;10.980;2022-11-02T03:45:06;8.50;99.90
14144;DHT22;7152;48.348;10.980;2022-11-02T03:47:34;8.40;99.90
14144;DHT22;7152;48.348;10.980;2022-11-02T03:50:04;8.40;99.90
14144;DHT22;7152;48.348;10.980;2022-11-02T03:52:32;8.40;99.90
14144;DHT22;7152;48.348;10.980;2022-11-02T03:55:08;8.40;99.90
14144;DHT22;7152;48.348;10.980;2022-11-02T03:57:48;8.40;99.90
14144;DHT22;7152;48.348;10.980;2022-11-02T04:00:20;8.50;99.90
14144;DHT22;7152;48.348;10.980;2022-11-02T04:02:48;8.50;99.90
14144;DHT22;7152;48.348;10.980;2022-11-02T04:05:14;8.50;99.90
14144;DHT22;7152;48.348;10.980;2022-11-02T04:07:42;8.50;99.90
14144;DHT22;7152;48.348;10.980;2022-11-02T04:10:28;8.50;99.90
14144;DHT22;7152;48.348;10.980;2022-11-02T04:12:53;8.60;99.90
14144;DHT22;7152;48.348;10.980;2022-11-02T04:15:37;8.50;99.90
14144;DHT22;7152;48.348;10.980;2022-11-02T04:18:03;8.50;99.90
14144;DHT22;7152;48.348;10.980;2022-11-02T04:20:50;8.50;99.90
14144;DHT22;7152;48.348;10.980;2022-11-02T04:23:17;8.50;99.90
14144;DHT22;7152;48.348;10.980;2022-11-02T04:26:02;8.50;99.90
14144;DHT22;7152;48.348;10.980;2022-11-02T04:28:27;8.50;99.90
14144;DHT22;7152;48.348;10.980;2022-11-02T04:30:53;8.50;99.90
14144;DHT22;7152;48.348;10.980;2022-11-02T04:33:19;8.50;99.90
14144;DHT22;7152;48.348;10.980;2022-11-02T04:36:01;8.40;99.90
14144;DHT22;7152;48.348;10.980;2022-11-02T04:38:31;8.50;99.90
14144;DHT22;7152;48.348;10.980;2022-11-02T04:41:17;8.50;99.90
14144;DHT22;7152;48.348;10.980;2022-11-02T04:44:01;8.50;99.90
14144;DHT22;7152;48.348;10.980;2022-11-02T04:46:29;8.50;99.90
14144;DHT22;7152;48.348;10.980;2022-11-02T04:48:55;8.50;99.90
14144;DHT22;7152;48.348;10.980;2022-11-02T04:51:22;8.50;99.90
14144;DHT22;7152;48.348;10.980;2022-11-02T04:53:49;8.60;99.90
14144;DHT22;7152;48.348;10.980;2022-11-02T04:56:14;8.60;99.90
14144;DHT22;7152;48.348;10.980;2022-11-02T04:58:40;8.60;99.90
14144;DHT22;7152;48.348;10.980;2022-11-02T05:01:08;8.60;99.90
14144;DHT22;7152;48.348;10.980;2022-11-02T05:03:36;8.60;99.90
14144;DHT22;7152;48.348;10.980;2022-11-02T05:06:02;8.60;99.90
14144;DHT22;7152;48.348;10.980;2022-11-02T05:08:27;8.50;99.90
14144;DHT22;7152;48.348;10.980;2022-11-02T05:10:54;8.50;99.90
14144;DHT22;7152;48.348;10.980;2022-11-02T05:13:21;8.50;99.90
14144;DHT22;7152;48.348;10.980;2022-11-02T05:15:47;8.50;99.90
14144;DHT22;7152;48.348;10.980;2022-11-02T05:18:12;8.50;99.90
14144;DHT22;7152;48.348;10.980;2022-11-02T05:20:38;8.40;99.90
14144;DHT22;7152;48.348;10.980;2022-11-02T05:23:04;8.50;99.90
14144;DHT22;7152;48.348;10.980;2022-11-02T05:25:31;8.40;99.90
14144;DHT22;7152;48.348;10.980;2022-11-02T05:27:56;8.50;99.90
14144;DHT22;7152;48.348;10.980;2022-11-02T05:30:22;8.40;99.90
14144;DHT22;7152;48.348;10.980;2022-11-02T05:32:48;8.40;99.90
14144;DHT22;7152;48.348;10.980;2022-11-02T05:35:14;8.40;99.90
14144;DHT22;7152;48.348;10.980;2022-11-02T05:37:40;8.40;99.90
14144;DHT22;7152;48.348;10.980;2022-11-02T05:40:06;8.30;99.90
14144;DHT22;7152;48.348;10.980;2022-11-02T05:42:33;8.30;99.90
14144;DHT22;7152;48.348;10.980;2022-11-02T05:44:59;8.30;99.90
14144;DHT22;7152;48.348;10.980;2022-11-02T05:47:24;8.20;99.90
14144;DHT22;7152;48.348;10.980;2022-11-02T05:49:50;8.20;99.90
14144;DHT22;7152;48.348;10.980;2022-11-02T05:52:15;8.20;99.90
14144;DHT22;7152;48.348;10.980;2022-11-02T05:54:41;8.20;99.90
14144;DHT22;7152;48.348;10.980;2022-11-02T05:57:07;8.20;99.90
14144;DHT22;7152;48.348;10.980;2022-11-02T05:59:32;8.20;99.90
14144;DHT22;7152;48.348;10.980;2022-11-02T06:01:58;8.20;99.90
14144;DHT22;7152;48.348;10.980;2022-11-02T06:04:23;8.10;99.90
14144;DHT22;7152;48.348;10.980;2022-11-02T06:06:49;8.10;99.90
14144;DHT22;7152;48.348;10.980;2022-11-02T06:09:15;8.10;99.90
14144;DHT22;7152;48.348;10.980;2022-11-02T06:11:40;8.10;99.90
14144;DHT22;7152;48.348;10.980;2022-11-02T06:14:06;8.10;99.90
14144;DHT22;7152;48.348;10.980;2022-11-02T06:16:31;8.10;99.90
14144;DHT22;7152;48.348;10.980;2022-11-02T06:18:57;8.10;99.90
14144;DHT22;7152;48.348;10.980;2022-11-02T06:21:23;8.20;99.90
14144;DHT22;7152;48.348;10.980;2022-11-02T06:23:49;8.20;99.90
14144;DHT22;7152;48.348;10.980;2022-11-02T06:26:15;8.30;99.90
14144;DHT22;7152;48.348;10.980;2022-11-02T06:28:41;8.30;99.90
14144;DHT22;7152;48.348;10.980;2022-11-02T06:31:06;8.40;99.90
14144;DHT22;7152;48.348;10.980;2022-11-02T06:33:32;8.40;99.90
14144;DHT22;7152;48.348;10.980;2022-11-02T06:35:58;8.50;99.90
14144;DHT22;7152;48.348;10.980;2022-11-02T06:38:24;8.60;99.90
14144;DHT22;7152;48.348;10.980;2022-11-02T06:40:58;8.70;99.90
14144;DHT22;7152;48.348;10.980;2022-11-02T06:43:24;8.80;99.90
14144;DHT22;7152;48.348;10.980;2022-11-02T06:45:53;8.90;99.90
14144;DHT22;7152;48.348;10.980;2022-11-02T06:48:19;8.90;99.90
14144;DHT22;7152;48.348;10.980;2022-11-02T06:50:44;9.10;99.90
14144;DHT22;7152;48.348;10.980;2022-11-02T06:53:10;9.10;99.90
14144;DHT22;7152;48.348;10.980;2022-11-02T06:55:36;9.20;99.90
14144;DHT22;7152;48.348;10.980;2022-11-02T06:58:01;9.30;99.90
14144;DHT22;7152;48.348;10.980;2022-11-02T07:00:27;9.40;99.90
14144;DHT22;7152;48.348;10.980;2022-11-02T07:03:08;9.50;99.90
14144;DHT22;7152;48.348;10.980;2022-11-02T07:05:35;9.60;99.90
14144;DHT22;7152;48.348;10.980;2022-11-02T07:08:01;9.60;99.90
14144;DHT22;7152;48.348;10.980;2022-11-02T07:10:27;9.80;99.90
14144;DHT22;7152;48.348;10.980;2022-11-02T07:12:54;9.80;99.90
14144;DHT22;7152;48.348;10.980;2022-11-02T07:15:21;9.90;99.90
14144;DHT22;7152;48.348;10.980;2022-11-02T07:17:47;10.00;99.90
14144;DHT22;7152;48.348;10.980;2022-11-02T07:20:13;10.00;99.90
14144;DHT22;7152;48.348;10.980;2022-11-02T07:22:39;10.10;99.90
14144;DHT22;7152;48.348;10.980;2022-11-02T07:25:05;10.20;99.90
14144;DHT22;7152;48.348;10.980;2022-11-02T07:27:40;10.30;99.90
14144;DHT22;7152;48.348;10.980;2022-11-02T07:30:07;10.50;99.90
14144;DHT22;7152;48.348;10.980;2022-11-02T07:32:43;10.50;99.90
14144;DHT22;7152;48.348;10.980;2022-11-02T07:35:12;10.60;99.90
14144;DHT22;7152;48.348;10.980;2022-11-02T07:37:38;10.70;99.90
14144;DHT22;7152;48.348;10.980;2022-11-02T07:40:05;10.80;99.90
14144;DHT22;7152;48.348;10.980;2022-11-02T07:42:31;10.90;99.90
14144;DHT22;7152;48.348;10.980;2022-11-02T07:44:56;11.00;99.90
14144;DHT22;7152;48.348;10.980;2022-11-02T07:47:23;11.20;99.90
14144;DHT22;7152;48.348;10.980;2022-11-02T07:49:48;11.20;99.90
14144;DHT22;7152;48.348;10.980;2022-11-02T07:52:14;11.30;99.90
14144;DHT22;7152;48.348;10.980;2022-11-02T07:54:40;11.30;99.90
14144;DHT22;7152;48.348;10.980;2022-11-02T07:57:05;11.40;99.90
14144;DHT22;7152;48.348;10.980;2022-11-02T07:59:31;11.50;99.90
14144;DHT22;7152;48.348;10.980;2022-11-02T08:01:56;11.60;99.90
14144;DHT22;7152;48.348;10.980;2022-11-02T08:04:22;11.70;99.90
14144;DHT22;7152;48.348;10.980;2022-11-02T08:06:48;11.80;99.90
14144;DHT22;7152;48.348;10.980;2022-11-02T08:09:13;11.90;99.90
14144;DHT22;7152;48.348;10.980;2022-11-02T08:11:40;11.90;99.90
14144;DHT22;7152;48.348;10.980;2022-11-02T08:14:06;12.10;99.90
14144;DHT22;7152;48.348;10.980;2022-11-02T08:16:32;12.10;99.90
14144;DHT22;7152;48.348;10.980;2022-11-02T08:18:57;12.30;99.90
14144;DHT22;7152;48.348;10.980;2022-11-02T08:21:24;12.30;99.90
14144;DHT22;7152;48.348;10.980;2022-11-02T08:23:50;12.40;99.90
14144;DHT22;7152;48.348;10.980;2022-11-02T08:26:16;12.50;99.90
14144;DHT22;7152;48.348;10.980;2022-11-02T08:28:42;12.50;99.90
14144;DHT22;7152;48.348;10.980;2022-11-02T08:31:15;12.60;99.90
14144;DHT22;7152;48.348;10.980;2022-11-02T08:33:44;12.60;99.90
14144;DHT22;7152;48.348;10.980;2022-11-02T08:36:10;12.70;99.90
14144;DHT22;7152;48.348;10.980;2022-11-02T08:38:36;12.70;99.90
14144;DHT22;7152;48.348;10.980;2022-11-02T08:41:02;12.80;99.90
14144;DHT22;7152;48.348;10.980;2022-11-02T08:43:28;12.80;99.90
14144;DHT22;7152;48.348;10.980;2022-11-02T08:45:57;12.90;99.90
14144;DHT22;7152;48.348;10.980;2022-11-02T08:48:23;12.90;99.90
14144;DHT22;7152;48.348;10.980;2022-11-02T08:50:49;13.00;99.90
14144;DHT22;7152;48.348;10.980;2022-11-02T08:53:15;13.00;99.90
14144;DHT22;7152;48.348;10.980;2022-11-02T08:55:41;13.10;99.90
14144;DHT22;7152;48.348;10.980;2022-11-02T08:58:06;13.10;99.90
14144;DHT22;7152;48.348;10.980;2022-11-02T09:00:33;13.20;99.90
14144;DHT22;7152;48.348;10.980;2022-11-02T09:03:08;13.20;99.90
14144;DHT22;7152;48.348;10.980;2022-11-02T09:05:41;13.30;99.90
14144;DHT22;7152;48.348;10.980;2022-11-02T09:08:13;13.40;99.90
14144;DHT22;7152;48.348;10.980;2022-11-02T09:10:39;13.40;99.90
14144;DHT22;7152;48.348;10.980;2022-11-02T09:13:06;13.30;99.90
14144;DHT22;7152;48.348;10.980;2022-11-02T09:15:34;13.40;99.90
14144;DHT22;7152;48.348;10.980;2022-11-02T09:18:00;13.50;99.90
14144;DHT22;7152;48.348;10.980;2022-11-02T09:20:26;13.60;99.90
14144;DHT22;7152;48.348;10.980;2022-11-02T09:22:52;13.60;99.90
14144;DHT22;7152;48.348;10.980;2022-11-02T09:25:17;13.70;99.90
14144;DHT22;7152;48.348;10.980;2022-11-02T09:27:43;13.80;99.90
14144;DHT22;7152;48.348;10.980;2022-11-02T09:30:10;13.90;99.90
14144;DHT22;7152;48.348;10.980;2022-11-02T09:32:36;14.00;99.90
14144;DHT22;7152;48.348;10.980;2022-11-02T09:35:05;14.10;99.90
14144;DHT22;7152;48.348;10.980;2022-11-02T09:37:31;14.10;99.90
14144;DHT22;7152;48.348;10.980;2022-11-02T09:39:57;14.20;99.90
14144;DHT22;7152;48.348;10.980;2022-11-02T09:45:20;14.20;99.90
14144;DHT22;7152;48.348;10.980;2022-11-02T09:48:00;14.20;99.90
14144;DHT22;7152;48.348;10.980;2022-11-02T09:50:42;14.20;99.90
14144;DHT22;7152;48.348;10.980;2022-11-02T09:53:13;14.30;99.90
14144;DHT22;7152;48.348;10.980;2022-11-02T09:55:48;14.30;99.90
14144;DHT22;7152;48.348;10.980;2022-11-02T09:58:18;14.40;99.90
14144;DHT22;7152;48.348;10.980;2022-11-02T10:00:47;14.50;99.90
14144;DHT22;7152;48.348;10.980;2022-11-02T10:03:30;14.60;99.90
14144;DHT22;7152;48.348;10.980;2022-11-02T10:06:11;14.70;99.90
14144;DHT22;7152;48.348;10.980;2022-11-02T10:09:31;14.90;99.90
14144;DHT22;7152;48.348;10.980;2022-11-02T10:14:20;15.00;99.90
14144;DHT22;7152;48.348;10.980;2022-11-02T10:17:03;15.10;99.90
14144;DHT22;7152;48.348;10.980;2022-11-02T10:19:34;15.10;99.90
14144;DHT22;7152;48.348;10.980;2022-11-02T10:22:02;15.10;99.90
14144;DHT22;7152;48.348;10.980;2022-11-02T10:24:44;15.10;99.90
14144;DHT22;7152;48.348;10.980;2022-11-02T10:27:24;15.10;99.90
14144;DHT22;7152;48.348;10.980;2022-11-02T10:32:36;15.10;99.90
14144;DHT22;7152;48.348;10.980;2022-11-02T10:35:11;14.90;99.90
14144;DHT22;7152;48.348;10.980;2022-11-02T10:40:16;14.70;99.90
14144;DHT22;7152;48.348;10.980;2022-11-02T10:51:34;14.50;99.90
14144;DHT22;7152;48.348;10.980;2022-11-02T10:54:00;14.40;99.90
14144;DHT22;7152;48.348;10.980;2022-11-02T10:56:30;14.40;99.90
14144;DHT22;7152;48.348;10.980;2022-11-02T11:01:26;14.50;99.90
14144;DHT22;7152;48.348;10.980;2022-11-02T11:04:00;14.50;99.90
14144;DHT22;7152;48.348;10.980;2022-11-02T11:06:40;14.50;99.90
14144;DHT22;7152;48.348;10.980;2022-11-02T11:09:16;14.60;99.90
14144;DHT22;7152;48.348;10.980;2022-11-02T11:11:53;14.60;99.90
14144;DHT22;7152;48.348;10.980;2022-11-02T11:14:20;14.60;99.90
14144;DHT22;7152;48.348;10.980;2022-11-02T11:16:52;14.60;99.90
14144;DHT22;7152;48.348;10.980;2022-11-02T11:19:26;14.70;99.90
14144;DHT22;7152;48.348;10.980;2022-11-02T11:21:54;14.70;99.90
14144;DHT22;7152;48.348;10.980;2022-11-02T11:24:31;14.80;99.90
14144;DHT22;7152;48.348;10.980;2022-11-02T11:27:12;14.90;99.90
14144;DHT22;7152;48.348;10.980;2022-11-02T11:29:44;15.00;99.90
14144;DHT22;7152;48.348;10.980;2022-11-02T11:32:21;14.90;99.90
14144;DHT22;7152;48.348;10.980;2022-11-02T11:34:57;14.90;99.90
14144;DHT22;7152;48.348;10.980;2022-11-02T11:37:25;14.90;99.90
14144;DHT22;7152;48.348;10.980;2022-11-02T11:40:18;14.70;99.90
14144;DHT22;7152;48.348;10.980;2022-11-02T11:42:47;14.60;99.90
14144;DHT22;7152;48.348;10.980;2022-11-02T11:45:27;14.60;99.90
14144;DHT22;7152;48.348;10.980;2022-11-02T11:47:56;14.60;99.90
14144;DHT22;7152;48.348;10.980;2022-11-02T11:50:24;14.50;99.90
14144;DHT22;7152;48.348;10.980;2022-11-02T11:53:23;14.50;99.90
14144;DHT22;7152;48.348;10.980;2022-11-02T11:55:53;14.60;99.90
14144;DHT22;7152;48.348;10.980;2022-11-02T11:58:30;14.50;99.90
14144;DHT22;7152;48.348;10.980;2022-11-02T12:03:56;14.50;99.90
14144;DHT22;7152;48.348;10.980;2022-11-02T12:22:28;14.70;99.90
14144;DHT22;7152;48.348;10.980;2022-11-02T12:25:48;14.70;99.90
14144;DHT22;7152;48.348;10.980;2022-11-02T12:28:07;14.70;99.90
14144;DHT22;7152;48.348;10.980;2022-11-02T12:30:58;14.80;99.90
14144;DHT22;7152;48.348;10.980;2022-11-02T12:36:39;14.90;99.90
14144;DHT22;7152;48.348;10.980;2022-11-02T12:39:16;14.90;99.90
14144;DHT22;7152;48.348;10.980;2022-11-02T12:42:05;14.90;99.90
14144;DHT22;7152;48.348;10.980;2022-11-02T12:45:39;15.00;99.90
14144;DHT22;7152;48.348;10.980;2022-11-02T12:48:01;15.10;99.90
14144;DHT22;7152;48.348;10.980;2022-11-02T12:53:12;15.10;99.90
14144;DHT22;7152;48.348;10.980;2022-11-02T12:55:44;15.10;99.90
14144;DHT22;7152;48.348;10.980;2022-11-02T12:58:33;15.10;99.90
14144;DHT22;7152;48.348;10.980;2022-11-02T13:01:23;15.20;99.90
14144;DHT22;7152;48.348;10.980;2022-11-02T13:06:33;15.30;99.90
14144;DHT22;7152;48.348;10.980;2022-11-02T13:09:08;15.30;99.90
14144;DHT22;7152;48.348;10.980;2022-11-02T13:11:40;15.30;99.90
14144;DHT22;7152;48.348;10.980;2022-11-02T13:14:15;15.40;99.90
14144;DHT22;7152;48.348;10.980;2022-11-02T13:16:49;15.30;99.90
14144;DHT22;7152;48.348;10.980;2022-11-02T13:19:35;15.40;99.90
14144;DHT22;7152;48.348;10.980;2022-11-02T13:22:03;15.30;99.90
14144;DHT22;7152;48.348;10.980;2022-11-02T13:24:37;15.30;99.90
14144;DHT22;7152;48.348;10.980;2022-11-02T13:27:05;15.20;99.90
14144;DHT22;7152;48.348;10.980;2022-11-02T13:29:44;15.20;99.90
14144;DHT22;7152;48.348;10.980;2022-11-02T13:32:30;15.10;99.90
14144;DHT22;7152;48.348;10.980;2022-11-02T13:34:58;15.00;99.90
14144;DHT22;7152;48.348;10.980;2022-11-02T13:37:33;14.90;99.90
14144;DHT22;7152;48.348;10.980;2022-11-02T13:40:07;14.80;99.90
14144;DHT22;7152;48.348;10.980;2022-11-02T13:51:07;14.40;99.90
14144;DHT22;7152;48.348;10.980;2022-11-02T13:53:39;14.40;99.90
14144;DHT22;7152;48.348;10.980;2022-11-02T13:56:27;14.40;99.90
14144;DHT22;7152;48.348;10.980;2022-11-02T13:58:56;14.30;99.90
14144;DHT22;7152;48.348;10.980;2022-11-02T14:01:23;14.30;99.90
14144;DHT22;7152;48.348;10.980;2022-11-02T14:03:55;14.30;99.90
14144;DHT22;7152;48.348;10.980;2022-11-02T14:06:23;14.30;99.90
14144;DHT22;7152;48.348;10.980;2022-11-02T14:09:02;14.30;99.90
14144;DHT22;7152;48.348;10.980;2022-11-02T14:40:04;13.50;99.90
14144;DHT22;7152;48.348;10.980;2022-11-02T14:48:46;13.00;99.90
14144;DHT22;7152;48.348;10.980;2022-11-02T14:51:21;12.90;99.90
14144;DHT22;7152;48.348;10.980;2022-11-02T14:53:57;12.80;99.90
14144;DHT22;7152;48.348;10.980;2022-11-02T14:56:23;12.70;99.90
14144;DHT22;7152;48.348;10.980;2022-11-02T14:59:01;12.60;99.90
14144;DHT22;7152;48.348;10.980;2022-11-02T15:01:27;12.50;99.90
14144;DHT22;7152;48.348;10.980;2022-11-02T15:03:52;12.50;99.90
14144;DHT22;7152;48.348;10.980;2022-11-02T15:06:25;12.40;99.90
14144;DHT22;7152;48.348;10.980;2022-11-02T15:11:46;12.30;99.90
14144;DHT22;7152;48.348;10.980;2022-11-02T15:17:00;12.20;99.90
14144;DHT22;7152;48.348;10.980;2022-11-02T15:19:37;12.10;99.90
14144;DHT22;7152;48.348;10.980;2022-11-02T15:22:51;12.00;99.90
14144;DHT22;7152;48.348;10.980;2022-11-02T15:25:51;11.90;99.90
14144;DHT22;7152;48.348;10.980;2022-11-02T15:28:23;11.90;99.90
14144;DHT22;7152;48.348;10.980;2022-11-02T15:30:52;11.80;99.90
14144;DHT22;7152;48.348;10.980;2022-11-02T15:35:58;11.70;99.90
14144;DHT22;7152;48.348;10.980;2022-11-02T15:38:28;11.60;99.90
14144;DHT22;7152;48.348;10.980;2022-11-02T15:41:17;11.50;99.90
14144;DHT22;7152;48.348;10.980;2022-11-02T15:49:29;11.30;99.90
14144;DHT22;7152;48.348;10.980;2022-11-02T15:55:18;11.10;99.90
14144;DHT22;7152;48.348;10.980;2022-11-02T16:03:31;10.90;99.90
14144;DHT22;7152;48.348;10.980;2022-11-02T16:05:58;10.80;99.90
14144;DHT22;7152;48.348;10.980;2022-11-02T16:08:31;10.80;99.90
14144;DHT22;7152;48.348;10.980;2022-11-02T16:13:32;10.70;99.90
14144;DHT22;7152;48.348;10.980;2022-11-02T16:16:05;10.60;99.90
14144;DHT22;7152;48.348;10.980;2022-11-02T16:18:38;10.50;99.90
14144;DHT22;7152;48.348;10.980;2022-11-02T16:21:12;10.50;99.90
14144;DHT22;7152;48.348;10.980;2022-11-02T16:23:41;10.50;99.90
14144;DHT22;7152;48.348;10.980;2022-11-02T16:26:15;10.40;99.90
14144;DHT22;7152;48.348;10.980;2022-11-02T16:28:48;10.40;99.90
14144;DHT22;7152;48.348;10.980;2022-11-02T16:31:19;10.30;99.90
14144;DHT22;7152;48.348;10.980;2022-11-02T16:33:53;10.30;99.90
14144;DHT22;7152;48.348;10.980;2022-11-02T16:36:25;10.20;99.90
14144;DHT22;7152;48.348;10.980;2022-11-02T16:41:25;10.10;99.90
14144;DHT22;7152;48.348;10.980;2022-11-02T16:43:51;10.10;99.90
14144;DHT22;7152;48.348;10.980;2022-11-02T16:49:17;10.00;99.90
14144;DHT22;7152;48.348;10.980;2022-11-02T16:54:36;9.90;99.90
14144;DHT22;7152;48.348;10.980;2022-11-02T16:57:51;9.90;99.90
14144;DHT22;7152;48.348;10.980;2022-11-02T17:00:17;9.90;99.90
14144;DHT22;7152;48.348;10.980;2022-11-02T17:02:44;9.90;99.90
14144;DHT22;7152;48.348;10.980;2022-11-02T17:05:20;9.90;99.90
14144;DHT22;7152;48.348;10.980;2022-11-02T17:07:58;9.90;99.90
14144;DHT22;7152;48.348;10.980;2022-11-02T17:10:26;9.80;99.90
14144;DHT22;7152;48.348;10.980;2022-11-02T17:12:52;9.90;99.90
14144;DHT22;7152;48.348;10.980;2022-11-02T17:15:24;9.80;99.90
14144;DHT22;7152;48.348;10.980;2022-11-02T17:20:37;9.80;99.90
14144;DHT22;7152;48.348;10.980;2022-11-02T17:23:08;9.80;99.90
14144;DHT22;7152;48.348;10.980;2022-11-02T17:25:39;9.80;99.90
14144;DHT22;7152;48.348;10.980;2022-11-02T17:31:00;9.70;99.90
14144;DHT22;7152;48.348;10.980;2022-11-02T17:33:32;9.70;99.90
14144;DHT22;7152;48.348;10.980;2022-11-02T17:36:06;9.60;99.90
14144;DHT22;7152;48.348;10.980;2022-11-02T17:38:32;9.60;99.90
14144;DHT22;7152;48.348;10.980;2022-11-02T17:40:59;9.60;99.90
14144;DHT22;7152;48.348;10.980;2022-11-02T17:43:25;9.60;99.90
14144;DHT22;7152;48.348;10.980;2022-11-02T17:49:13;9.50;99.90
14144;DHT22;7152;48.348;10.980;2022-11-02T17:51:39;9.50;99.90
14144;DHT22;7152;48.348;10.980;2022-11-02T17:54:05;9.50;99.90
14144;DHT22;7152;48.348;10.980;2022-11-02T17:56:31;9.40;99.90
14144;DHT22;7152;48.348;10.980;2022-11-02T17:58:57;9.40;99.90
14144;DHT22;7152;48.348;10.980;2022-11-02T18:01:23;9.40;99.90
14144;DHT22;7152;48.348;10.980;2022-11-02T18:03:48;9.40;99.90
14144;DHT22;7152;48.348;10.980;2022-11-02T18:06:14;9.30;99.90
14144;DHT22;7152;48.348;10.980;2022-11-02T18:08:40;9.20;99.90
14144;DHT22;7152;48.348;10.980;2022-11-02T18:11:24;9.20;99.90
14144;DHT22;7152;48.348;10.980;2022-11-02T18:13:49;9.20;99.90
14144;DHT22;7152;48.348;10.980;2022-11-02T18:16:15;9.20;99.90
14144;DHT22;7152;48.348;10.980;2022-11-02T18:18:41;9.20;99.90
14144;DHT22;7152;48.348;10.980;2022-11-02T18:21:09;9.20;99.90
14144;DHT22;7152;48.348;10.980;2022-11-02T18:23:35;9.10;99.90
14144;DHT22;7152;48.348;10.980;2022-11-02T18:26:01;9.20;99.90
14144;DHT22;7152;48.348;10.980;2022-11-02T18:28:27;9.10;99.90
14144;DHT22;7152;48.348;10.980;2022-11-02T18:30:52;9.10;99.90
14144;DHT22;7152;48.348;10.980;2022-11-02T18:33:18;9.10;99.90
14144;DHT22;7152;48.348;10.980;2022-11-02T18:35:43;9.10;99.90
14144;DHT22;7152;48.348;10.980;2022-11-02T18:38:10;9.10;99.90
14144;DHT22;7152;48.348;10.980;2022-11-02T18:40:36;9.00;99.90
14144;DHT22;7152;48.348;10.980;2022-11-02T18:43:02;8.90;99.90